sensor_id;sensor_type;location;lat;lon;timestamp;temperature;humidity
1936;DHT22;969;49.892;10.896;2022-09-27T00:02:08;22.30;52.60
1936;DHT22;969;49.892;10.896;2022-09-27T00:04:47;22.30;52.60
1936;DHT22;969;49.892;10.896;2022-09-27T00:07:24;22.30;52.60
1936;DHT22;969;49.892;10.896;2022-09-27T00:10:04;22.30;52.60
1936;DHT22;969;49.892;10.896;2022-09-27T00:12:36;22.30;52.60
1936;DHT22;969;49.892;10.896;2022-09-27T00:19:24;22.30;52.60
1936;DHT22;969;49.892;10.896;2022-09-27T00:22:12;22.30;52.70
1936;DHT22;969;49.892;10.896;2022-09-27T00:24:52;22.30;52.70
1936;DHT22;969;49.892;10.896;2022-09-27T00:27:35;22.30;52.70
1936;DHT22;969;49.892;10.896;2022-09-27T00:30:11;22.30;52.70
1936;DHT22;969;49.892;10.896;2022-09-27T00:32:47;22.30;52.70
1936;DHT22;969;49.892;10.896;2022-09-27T00:35:25;22.30;52.60
1936;DHT22;969;49.892;10.896;2022-09-27T00:38:03;22.30;52.60
1936;DHT22;969;49.892;10.896;2022-09-27T00:40:35;22.30;52.60
1936;DHT22;969;49.892;10.896;2022-09-27T00:43:22;22.30;52.60
1936;DHT22;969;49.892;10.896;2022-09-27T00:46:18;22.30;52.60
1936;DHT22;969;49.892;10.896;2022-09-27T00:51:46;22.30;52.60
1936;DHT22;969;49.892;10.896;2022-09-27T00:54:18;22.30;52.20
1936;DHT22;969;49.892;10.896;2022-09-27T00:56:54;22.30;52.60
1936;DHT22;969;49.892;10.896;2022-09-27T00:59:29;22.30;52.60
1936;DHT22;969;49.892;10.896;2022-09-27T01:02:02;22.30;52.60
1936;DHT22;969;49.892;10.896;2022-09-27T01:04:38;22.30;52.60
1936;DHT22;969;49.892;10.896;2022-09-27T01:07:13;22.30;52.60
1936;DHT22;969;49.892;10.896;2022-09-27T01:09:40;22.30;52.60
1936;DHT22;969;49.892;10.896;2022-09-27T01:38:57;22.30;52.70
1936;DHT22;969;49.892;10.896;2022-09-27T01:41:53;22.30;52.70
1936;DHT22;969;49.892;10.896;2022-09-27T01:44:34;22.30;52.70
1936;DHT22;969;49.892;10.896;2022-09-27T01:47:19;22.30;52.70
1936;DHT22;969;49.892;10.896;2022-09-27T01:50:39;22.30;52.70
1936;DHT22;969;49.892;10.896;2022-09-27T01:53:18;22.30;53.20
1936;DHT22;969;49.892;10.896;2022-09-27T01:55:50;22.20;52.60
1936;DHT22;969;49.892;10.896;2022-09-27T01:58:49;22.20;52.60
1936;DHT22;969;49.892;10.896;2022-09-27T02:01:22;22.30;52.70
1936;DHT22;969;49.892;10.896;2022-09-27T02:04:14;22.20;52.60
1936;DHT22;969;49.892;10.896;2022-09-27T02:07:41;22.20;52.70
1936;DHT22;969;49.892;10.896;2022-09-27T02:10:33;22.20;52.70
1936;DHT22;969;49.892;10.896;2022-09-27T02:13:49;22.20;52.70
1936;DHT22;969;49.892;10.896;2022-09-27T02:16:49;22.20;52.70
1936;DHT22;969;49.892;10.896;2022-09-27T02:28:01;22.20;52.70
1936;DHT22;969;49.892;10.896;2022-09-27T02:30:45;22.20;52.70
1936;DHT22;969;49.892;10.896;2022-09-27T02:33:25;22.20;52.70
1936;DHT22;969;49.892;10.896;2022-09-27T02:36:08;22.20;52.70
1936;DHT22;969;49.892;10.896;2022-09-27T02:38:43;22.20;52.70
1936;DHT22;969;49.892;10.896;2022-09-27T02:41:16;22.20;52.70
1936;DHT22;969;49.892;10.896;2022-09-27T02:44:03;22.20;52.70
1936;DHT22;969;49.892;10.896;2022-09-27T02:49:29;22.20;52.70
1936;DHT22;969;49.892;10.896;2022-09-27T02:52:13;22.20;52.70
1936;DHT22;969;49.892;10.896;2022-09-27T03:01:22;22.20;52.70
1936;DHT22;969;49.892;10.896;2022-09-27T03:04:41;22.20;52.70
1936;DHT22;969;49.892;10.896;2022-09-27T03:07:07;22.20;52.70
1936;DHT22;969;49.892;10.896;2022-09-27T03:09:56;22.20;52.80
1936;DHT22;969;49.892;10.896;2022-09-27T03:12:43;22.20;52.80
1936;DHT22;969;49.892;10.896;2022-09-27T03:15:24;22.20;52.80
1936;DHT22;969;49.892;10.896;2022-09-27T03:18:11;22.20;52.80
1936;DHT22;969;49.892;10.896;2022-09-27T03:20:54;22.20;52.80
1936;DHT22;969;49.892;10.896;2022-09-27T03:23:26;22.20;52.70
1936;DHT22;969;49.892;10.896;2022-09-27T03:25:59;22.20;52.80
1936;DHT22;969;49.892;10.896;2022-09-27T03:28:52;22.20;52.70
1936;DHT22;969;49.892;10.896;2022-09-27T03:31:38;22.20;52.70
1936;DHT22;969;49.892;10.896;2022-09-27T03:34:19;22.20;52.70
1936;DHT22;969;49.892;10.896;2022-09-27T03:37:07;22.20;52.80
1936;DHT22;969;49.892;10.896;2022-09-27T03:43:23;22.20;52.70
1936;DHT22;969;49.892;10.896;2022-09-27T03:45:55;22.10;52.80
1936;DHT22;969;49.892;10.896;2022-09-27T03:48:49;22.10;52.70
1936;DHT22;969;49.892;10.896;2022-09-27T03:51:21;22.10;52.70
1936;DHT22;969;49.892;10.896;2022-09-27T03:53:54;22.10;52.70
1936;DHT22;969;49.892;10.896;2022-09-27T03:56:28;22.10;52.80
1936;DHT22;969;49.892;10.896;2022-09-27T03:59:10;22.10;52.70
1936;DHT22;969;49.892;10.896;2022-09-27T04:01:44;22.20;52.80
1936;DHT22;969;49.892;10.896;2022-09-27T04:04:26;22.10;52.70
1936;DHT22;969;49.892;10.896;2022-09-27T04:07:12;22.10;52.70
1936;DHT22;969;49.892;10.896;2022-09-27T04:10:12;22.10;52.70
1936;DHT22;969;49.892;10.896;2022-09-27T04:12:51;22.10;52.80
1936;DHT22;969;49.892;10.896;2022-09-27T04:15:26;22.10;52.80
1936;DHT22;969;49.892;10.896;2022-09-27T04:18:08;22.20;52.90
1936;DHT22;969;49.892;10.896;2022-09-27T04:21:00;22.10;52.80
1936;DHT22;969;49.892;10.896;2022-09-27T04:24:08;22.10;52.80
1936;DHT22;969;49.892;10.896;2022-09-27T04:26:55;22.10;52.80
1936;DHT22;969;49.892;10.896;2022-09-27T04:29:32;22.10;52.80
1936;DHT22;969;49.892;10.896;2022-09-27T04:32:11;22.10;52.90
1936;DHT22;969;49.892;10.896;2022-09-27T04:38:00;22.10;52.90
1936;DHT22;969;49.892;10.896;2022-09-27T04:40:54;22.10;52.90
1936;DHT22;969;49.892;10.896;2022-09-27T04:43:32;22.10;52.90
1936;DHT22;969;49.892;10.896;2022-09-27T04:46:24;22.10;52.90
1936;DHT22;969;49.892;10.896;2022-09-27T04:52:09;22.10;53.00
1936;DHT22;969;49.892;10.896;2022-09-27T04:54:49;22.10;52.90
1936;DHT22;969;49.892;10.896;2022-09-27T04:57:39;22.00;52.80
1936;DHT22;969;49.892;10.896;2022-09-27T05:00:20;22.10;53.50
1936;DHT22;969;49.892;10.896;2022-09-27T05:03:04;22.10;52.90
1936;DHT22;969;49.892;10.896;2022-09-27T05:05:47;22.10;52.90
1936;DHT22;969;49.892;10.896;2022-09-27T05:08:31;22.10;52.90
1936;DHT22;969;49.892;10.896;2022-09-27T05:11:10;22.10;52.90
1936;DHT22;969;49.892;10.896;2022-09-27T05:14:13;22.10;52.90
1936;DHT22;969;49.892;10.896;2022-09-27T05:16:55;22.10;52.90
1936;DHT22;969;49.892;10.896;2022-09-27T05:19:28;22.10;52.90
1936;DHT22;969;49.892;10.896;2022-09-27T05:22:02;22.10;52.90
1936;DHT22;969;49.892;10.896;2022-09-27T05:24:45;22.10;52.90
1936;DHT22;969;49.892;10.896;2022-09-27T05:27:18;22.10;52.90
1936;DHT22;969;49.892;10.896;2022-09-27T05:29:49;22.10;52.90
1936;DHT22;969;49.892;10.896;2022-09-27T05:32:21;22.10;52.80
1936;DHT22;969;49.892;10.896;2022-09-27T05:34:49;22.10;52.80
1936;DHT22;969;49.892;10.896;2022-09-27T05:37:22;22.10;52.90
1936;DHT22;969;49.892;10.896;2022-09-27T05:43:19;22.10;52.80
1936;DHT22;969;49.892;10.896;2022-09-27T05:45:57;22.10;52.80
1936;DHT22;969;49.892;10.896;2022-09-27T05:48:30;22.10;52.80
1936;DHT22;969;49.892;10.896;2022-09-27T05:51:11;22.10;52.80
1936;DHT22;969;49.892;10.896;2022-09-27T05:57:22;22.10;52.80
1936;DHT22;969;49.892;10.896;2022-09-27T05:59:53;22.10;52.90
1936;DHT22;969;49.892;10.896;2022-09-27T06:02:27;22.10;52.80
1936;DHT22;969;49.892;10.896;2022-09-27T06:05:09;22.10;52.80
1936;DHT22;969;49.892;10.896;2022-09-27T06:07:39;22.10;52.80
1936;DHT22;969;49.892;10.896;2022-09-27T06:10:17;22.10;52.80
1936;DHT22;969;49.892;10.896;2022-09-27T06:12:58;22.10;52.90
1936;DHT22;969;49.892;10.896;2022-09-27T06:15:39;22.10;52.80
1936;DHT22;969;49.892;10.896;2022-09-27T06:18:13;22.10;52.80
1936;DHT22;969;49.892;10.896;2022-09-27T06:20:58;22.10;52.80
1936;DHT22;969;49.892;10.896;2022-09-27T06:23:35;22.10;52.80
1936;DHT22;969;49.892;10.896;2022-09-27T06:26:15;22.10;52.70
1936;DHT22;969;49.892;10.896;2022-09-27T06:28:49;22.10;52.70
1936;DHT22;969;49.892;10.896;2022-09-27T06:31:22;22.10;52.70
1936;DHT22;969;49.892;10.896;2022-09-27T06:34:11;22.10;52.70
1936;DHT22;969;49.892;10.896;2022-09-27T06:40:14;22.10;52.70
1936;DHT22;969;49.892;10.896;2022-09-27T06:49:40;22.10;52.80
1936;DHT22;969;49.892;10.896;2022-09-27T06:52:19;22.10;52.80
1936;DHT22;969;49.892;10.896;2022-09-27T06:55:10;22.10;52.80
1936;DHT22;969;49.892;10.896;2022-09-27T06:57:39;22.10;52.80
1936;DHT22;969;49.892;10.896;2022-09-27T07:00:33;22.10;52.70
1936;DHT22;969;49.892;10.896;2022-09-27T07:03:10;22.10;52.80
1936;DHT22;969;49.892;10.896;2022-09-27T07:05:52;22.10;52.80
1936;DHT22;969;49.892;10.896;2022-09-27T07:08:22;22.20;52.90
1936;DHT22;969;49.892;10.896;2022-09-27T07:14:41;22.10;52.70
1936;DHT22;969;49.892;10.896;2022-09-27T07:18:04;22.10;52.70
1936;DHT22;969;49.892;10.896;2022-09-27T07:20:41;22.10;52.70
1936;DHT22;969;49.892;10.896;2022-09-27T07:23:23;22.10;52.70
1936;DHT22;969;49.892;10.896;2022-09-27T07:25:59;22.10;52.70
1936;DHT22;969;49.892;10.896;2022-09-27T07:28:38;22.10;52.70
1936;DHT22;969;49.892;10.896;2022-09-27T07:31:11;22.10;52.80
1936;DHT22;969;49.892;10.896;2022-09-27T07:37:38;22.20;52.90
1936;DHT22;969;49.892;10.896;2022-09-27T07:43:40;22.20;53.00
1936;DHT22;969;49.892;10.896;2022-09-27T07:46:12;22.10;53.00
1936;DHT22;969;49.892;10.896;2022-09-27T07:49:05;22.10;52.90
1936;DHT22;969;49.892;10.896;2022-09-27T07:58:18;22.20;52.90
1936;DHT22;969;49.892;10.896;2022-09-27T08:00:51;22.20;52.90
1936;DHT22;969;49.892;10.896;2022-09-27T08:03:25;22.20;52.90
1936;DHT22;969;49.892;10.896;2022-09-27T08:05:54;22.20;52.90
1936;DHT22;969;49.892;10.896;2022-09-27T08:08:33;22.20;52.90
1936;DHT22;969;49.892;10.896;2022-09-27T08:11:24;22.20;52.80
1936;DHT22;969;49.892;10.896;2022-09-27T08:14:03;22.30;52.90
1936;DHT22;969;49.892;10.896;2022-09-27T08:16:40;22.30;52.90
1936;DHT22;969;49.892;10.896;2022-09-27T08:19:17;22.30;52.80
1936;DHT22;969;49.892;10.896;2022-09-27T08:22:08;22.30;52.80
1936;DHT22;969;49.892;10.896;2022-09-27T08:24:41;22.30;52.80
1936;DHT22;969;49.892;10.896;2022-09-27T08:33:05;22.30;52.80
1936;DHT22;969;49.892;10.896;2022-09-27T08:35:56;22.30;52.80
1936;DHT22;969;49.892;10.896;2022-09-27T08:38:30;22.30;52.80
1936;DHT22;969;49.892;10.896;2022-09-27T08:41:46;22.30;52.80
1936;DHT22;969;49.892;10.896;2022-09-27T08:47:48;22.30;52.80
1936;DHT22;969;49.892;10.896;2022-09-27T08:50:42;22.30;52.80
1936;DHT22;969;49.892;10.896;2022-09-27T08:53:43;22.30;52.80
1936;DHT22;969;49.892;10.896;2022-09-27T08:56:26;22.40;52.90
1936;DHT22;969;49.892;10.896;2022-09-27T09:55:40;22.40;53.00
1936;DHT22;969;49.892;10.896;2022-09-27T10:32:33;22.40;52.90
1936;DHT22;969;49.892;10.896;2022-09-27T10:36:00;22.40;52.90
1936;DHT22;969;49.892;10.896;2022-09-27T10:52:15;22.50;52.90
1936;DHT22;969;49.892;10.896;2022-09-27T10:55:24;22.40;52.90
1936;DHT22;969;49.892;10.896;2022-09-27T10:58:01;22.50;52.90
1936;DHT22;969;49.892;10.896;2022-09-27T11:01:00;22.50;52.90
1936;DHT22;969;49.892;10.896;2022-09-27T11:03:57;22.50;52.90
1936;DHT22;969;49.892;10.896;2022-09-27T11:14:17;22.50;52.80
1936;DHT22;969;49.892;10.896;2022-09-27T12:09:48;22.50;53.00
1936;DHT22;969;49.892;10.896;2022-09-27T12:12:31;22.50;53.00
1936;DHT22;969;49.892;10.896;2022-09-27T12:22:29;22.50;52.90
1936;DHT22;969;49.892;10.896;2022-09-27T12:25:02;22.50;52.90
1936;DHT22;969;49.892;10.896;2022-09-27T12:28:24;22.50;52.90
1936;DHT22;969;49.892;10.896;2022-09-27T12:31:20;22.60;53.00
1936;DHT22;969;49.892;10.896;2022-09-27T12:44:21;22.50;52.90
1936;DHT22;969;49.892;10.896;2022-09-27T13:15:36;22.40;52.50
1936;DHT22;969;49.892;10.896;2022-09-27T13:52:27;22.40;52.80
1936;DHT22;969;49.892;10.896;2022-09-27T14:01:50;22.40;52.80
1936;DHT22;969;49.892;10.896;2022-09-27T14:11:17;22.40;52.80
1936;DHT22;969;49.892;10.896;2022-09-27T14:14:51;22.40;52.80
1936;DHT22;969;49.892;10.896;2022-09-27T14:17:29;22.40;52.80
1936;DHT22;969;49.892;10.896;2022-09-27T14:20:37;22.40;52.80
1936;DHT22;969;49.892;10.896;2022-09-27T14:23:26;22.40;52.80
1936;DHT22;969;49.892;10.896;2022-09-27T14:26:37;22.40;52.80
1936;DHT22;969;49.892;10.896;2022-09-27T14:29:23;22.40;52.80
1936;DHT22;969;49.892;10.896;2022-09-27T14:32:28;22.40;52.70
1936;DHT22;969;49.892;10.896;2022-09-27T14:35:12;22.40;52.70
1936;DHT22;969;49.892;10.896;2022-09-27T14:37:58;22.40;52.80
1936;DHT22;969;49.892;10.896;2022-09-27T14:40:28;22.40;52.70
1936;DHT22;969;49.892;10.896;2022-09-27T14:45:54;22.40;52.70
1936;DHT22;969;49.892;10.896;2022-09-27T14:49:08;22.40;52.70
1936;DHT22;969;49.892;10.896;2022-09-27T14:52:18;22.40;52.70
1936;DHT22;969;49.892;10.896;2022-09-27T14:55:05;22.40;52.80
1936;DHT22;969;49.892;10.896;2022-09-27T14:57:34;22.40;52.70
1936;DHT22;969;49.892;10.896;2022-09-27T15:00:36;22.40;52.70
1936;DHT22;969;49.892;10.896;2022-09-27T15:07:01;22.40;52.70
1936;DHT22;969;49.892;10.896;2022-09-27T15:09:31;22.40;52.70
1936;DHT22;969;49.892;10.896;2022-09-27T15:12:05;22.40;52.70
1936;DHT22;969;49.892;10.896;2022-09-27T15:14:38;22.40;53.20
1936;DHT22;969;49.892;10.896;2022-09-27T15:17:34;22.40;52.60
1936;DHT22;969;49.892;10.896;2022-09-27T15:20:25;22.40;52.70
1936;DHT22;969;49.892;10.896;2022-09-27T15:22:56;22.40;52.60
1936;DHT22;969;49.892;10.896;2022-09-27T15:28:49;22.40;52.60
1936;DHT22;969;49.892;10.896;2022-09-27T15:31:40;22.40;52.70
1936;DHT22;969;49.892;10.896;2022-09-27T15:34:16;22.40;52.60
1936;DHT22;969;49.892;10.896;2022-09-27T15:36:57;22.40;52.60
1936;DHT22;969;49.892;10.896;2022-09-27T15:39:52;22.40;52.60
1936;DHT22;969;49.892;10.896;2022-09-27T15:45:57;22.40;52.70
1936;DHT22;969;49.892;10.896;2022-09-27T15:48:34;22.40;52.70
1936;DHT22;969;49.892;10.896;2022-09-27T15:51:02;22.40;52.70
1936;DHT22;969;49.892;10.896;2022-09-27T15:54:07;22.40;52.60
1936;DHT22;969;49.892;10.896;2022-09-27T15:56:43;22.40;52.60
1936;DHT22;969;49.892;10.896;2022-09-27T15:59:33;22.40;52.60
1936;DHT22;969;49.892;10.896;2022-09-27T16:02:05;22.40;52.70
1936;DHT22;969;49.892;10.896;2022-09-27T16:05:23;22.40;52.60
1936;DHT22;969;49.892;10.896;2022-09-27T16:08:11;22.40;52.60
1936;DHT22;969;49.892;10.896;2022-09-27T16:10:39;22.40;52.60
1936;DHT22;969;49.892;10.896;2022-09-27T16:13:06;22.40;52.60
1936;DHT22;969;49.892;10.896;2022-09-27T16:15:59;22.40;52.60
1936;DHT22;969;49.892;10.896;2022-09-27T16:22:07;22.40;52.60
1936;DHT22;969;49.892;10.896;2022-09-27T16:24:34;22.30;52.50
1936;DHT22;969;49.892;10.896;2022-09-27T16:27:00;22.40;52.60
1936;DHT22;969;49.892;10.896;2022-09-27T16:29:26;22.40;53.20
1936;DHT22;969;49.892;10.896;2022-09-27T16:32:04;22.40;52.60
1936;DHT22;969;49.892;10.896;2022-09-27T16:34:32;22.40;52.60
1936;DHT22;969;49.892;10.896;2022-09-27T16:37:08;22.40;52.50
1936;DHT22;969;49.892;10.896;2022-09-27T16:39:38;22.40;52.50
1936;DHT22;969;49.892;10.896;2022-09-27T16:42:10;22.40;52.50
1936;DHT22;969;49.892;10.896;2022-09-27T16:44:36;22.40;52.50
1936;DHT22;969;49.892;10.896;2022-09-27T16:47:11;22.40;53.10
1936;DHT22;969;49.892;10.896;2022-09-27T16:49:44;22.40;52.50
1936;DHT22;969;49.892;10.896;2022-09-27T16:52:29;22.40;52.50
1936;DHT22;969;49.892;10.896;2022-09-27T16:55:03;22.40;52.50
1936;DHT22;969;49.892;10.896;2022-09-27T16:57:29;22.40;52.60
1936;DHT22;969;49.892;10.896;2022-09-27T16:59:58;22.40;52.50
1936;DHT22;969;49.892;10.896;2022-09-27T17:02:40;22.40;52.50
1936;DHT22;969;49.892;10.896;2022-09-27T17:05:20;22.40;52.50
1936;DHT22;969;49.892;10.896;2022-09-27T17:08:09;22.30;52.50
1936;DHT22;969;49.892;10.896;2022-09-27T17:10:43;22.30;52.50
1936;DHT22;969;49.892;10.896;2022-09-27T17:13:15;22.30;52.50
1936;DHT22;969;49.892;10.896;2022-09-27T17:15:55;22.30;52.50
1936;DHT22;969;49.892;10.896;2022-09-27T17:18:38;22.30;52.50
1936;DHT22;969;49.892;10.896;2022-09-27T17:21:11;22.30;52.50
1936;DHT22;969;49.892;10.896;2022-09-27T17:23:43;22.30;52.50
1936;DHT22;969;49.892;10.896;2022-09-27T17:26:18;22.30;52.50
1936;DHT22;969;49.892;10.896;2022-09-27T17:28:57;22.30;52.50
1936;DHT22;969;49.892;10.896;2022-09-27T17:31:32;22.30;52.50
1936;DHT22;969;49.892;10.896;2022-09-27T17:34:03;22.30;52.50
1936;DHT22;969;49.892;10.896;2022-09-27T17:36:34;22.30;52.50
1936;DHT22;969;49.892;10.896;2022-09-27T17:39:12;22.30;52.50
1936;DHT22;969;49.892;10.896;2022-09-27T17:41:41;22.30;52.50
1936;DHT22;969;49.892;10.896;2022-09-27T17:44:18;22.30;52.50
1936;DHT22;969;49.892;10.896;2022-09-27T17:46:55;22.30;52.50
1936;DHT22;969;49.892;10.896;2022-09-27T17:49:50;22.30;52.50
1936;DHT22;969;49.892;10.896;2022-09-27T17:52:35;22.30;52.50
1936;DHT22;969;49.892;10.896;2022-09-27T17:55:08;22.30;52.60
1936;DHT22;969;49.892;10.896;2022-09-27T17:57:37;22.30;52.50
1936;DHT22;969;49.892;10.896;2022-09-27T18:00:20;22.30;52.50
1936;DHT22;969;49.892;10.896;2022-09-27T18:06:04;22.30;52.60
1936;DHT22;969;49.892;10.896;2022-09-27T18:09:01;22.30;52.50
1936;DHT22;969;49.892;10.896;2022-09-27T18:11:52;22.30;52.50
1936;DHT22;969;49.892;10.896;2022-09-27T18:14:33;22.30;52.60
1936;DHT22;969;49.892;10.896;2022-09-27T18:17:08;22.30;52.60
1936;DHT22;969;49.892;10.896;2022-09-27T18:19:52;22.30;52.60
1936;DHT22;969;49.892;10.896;2022-09-27T18:22:27;22.30;52.60
1936;DHT22;969;49.892;10.896;2022-09-27T18:25:06;22.30;52.60
1936;DHT22;969;49.892;10.896;2022-09-27T18:27:38;22.30;52.60
1936;DHT22;969;49.892;10.896;2022-09-27T18:30:11;22.30;52.60
1936;DHT22;969;49.892;10.896;2022-09-27T18:32:41;22.30;52.60
1936;DHT22;969;49.892;10.896;2022-09-27T18:35:10;22.30;52.60
1936;DHT22;969;49.892;10.896;2022-09-27T18:37:52;22.30;52.50
1936;DHT22;969;49.892;10.896;2022-09-27T18:40:24;22.30;52.50
1936;DHT22;969;49.892;10.896;2022-09-27T18:42:53;22.30;52.50
1936;DHT22;969;49.892;10.896;2022-09-27T18:45:24;22.30;52.50
1936;DHT22;969;49.892;10.896;2022-09-27T18:47:50;22.30;52.50
1936;DHT22;969;49.892;10.896;2022-09-27T18:50:19;22.30;52.50
1936;DHT22;969;49.892;10.896;2022-09-27T18:52:49;22.30;52.50
1936;DHT22;969;49.892;10.896;2022-09-27T18:55:17;22.30;52.50
1936;DHT22;969;49.892;10.896;2022-09-27T18:57:51;22.30;52.50
1936;DHT22;969;49.892;10.896;2022-09-27T19:00:19;22.30;52.50
1936;DHT22;969;49.892;10.896;2022-09-27T19:02:50;22.30;52.60
1936;DHT22;969;49.892;10.896;2022-09-27T19:05:17;22.30;52.50
1936;DHT22;969;49.892;10.896;2022-09-27T19:08:01;22.30;52.50
1936;DHT22;969;49.892;10.896;2022-09-27T19:10:33;22.30;52.50
1936;DHT22;969;49.892;10.896;2022-09-27T19:13:03;22.20;52.50
1936;DHT22;969;49.892;10.896;2022-09-27T19:15:35;22.30;52.50
1936;DHT22;969;49.892;10.896;2022-09-27T19:18:02;22.20;52.50
1936;DHT22;969;49.892;10.896;2022-09-27T19:23:02;22.20;52.50
1936;DHT22;969;49.892;10.896;2022-09-27T19:25:31;22.20;52.50
1936;DHT22;969;49.892;10.896;2022-09-27T19:27:58;22.20;52.50
1936;DHT22;969;49.892;10.896;2022-09-27T19:30:27;22.20;52.50
1936;DHT22;969;49.892;10.896;2022-09-27T19:32:53;22.20;52.50
1936;DHT22;969;49.892;10.896;2022-09-27T19:35:32;22.20;52.50
1936;DHT22;969;49.892;10.896;2022-09-27T19:38:02;22.20;52.50
1936;DHT22;969;49.892;10.896;2022-09-27T19:40:32;22.20;52.50
1936;DHT22;969;49.892;10.896;2022-09-27T19:43:07;22.20;52.50
1936;DHT22;969;49.892;10.896;2022-09-27T19:45:39;22.20;52.50
1936;DHT22;969;49.892;10.896;2022-09-27T19:48:13;22.20;52.50
1936;DHT22;969;49.892;10.896;2022-09-27T19:50:59;22.20;52.50
1936;DHT22;969;49.892;10.896;2022-09-27T19:53:34;22.20;52.50
1936;DHT22;969;49.892;10.896;2022-09-27T19:56:06;22.20;52.50
1936;DHT22;969;49.892;10.896;2022-09-27T19:58:41;22.20;52.50
1936;DHT22;969;49.892;10.896;2022-09-27T20:01:13;22.20;52.50
1936;DHT22;969;49.892;10.896;2022-09-27T20:03:52;22.20;52.50
1936;DHT22;969;49.892;10.896;2022-09-27T20:06:27;22.20;52.50
1936;DHT22;969;49.892;10.896;2022-09-27T20:15:31;22.20;52.50
1936;DHT22;969;49.892;10.896;2022-09-27T20:24:42;22.10;52.50
1936;DHT22;969;49.892;10.896;2022-09-27T20:27:12;22.10;52.20
1936;DHT22;969;49.892;10.896;2022-09-27T20:29:47;22.10;52.10
1936;DHT22;969;49.892;10.896;2022-09-27T20:32:32;22.10;52.30
1936;DHT22;969;49.892;10.896;2022-09-27T20:35:13;22.10;52.40
1936;DHT22;969;49.892;10.896;2022-09-27T20:51:23;22.10;52.60
1936;DHT22;969;49.892;10.896;2022-09-27T20:54:24;22.10;52.70
1936;DHT22;969;49.892;10.896;2022-09-27T20:57:14;22.10;52.70
1936;DHT22;969;49.892;10.896;2022-09-27T21:03:47;22.10;52.70
1936;DHT22;969;49.892;10.896;2022-09-27T21:13:08;22.10;52.70
1936;DHT22;969;49.892;10.896;2022-09-27T21:15:48;22.10;52.70
1936;DHT22;969;49.892;10.896;2022-09-27T21:18:26;22.10;52.70
1936;DHT22;969;49.892;10.896;2022-09-27T21:21:11;22.10;52.70
1936;DHT22;969;49.892;10.896;2022-09-27T21:24:03;22.10;52.70
1936;DHT22;969;49.892;10.896;2022-09-27T21:26:39;22.10;52.70
1936;DHT22;969;49.892;10.896;2022-09-27T21:32:31;22.10;52.70
1936;DHT22;969;49.892;10.896;2022-09-27T21:35:48;22.10;52.70
1936;DHT22;969;49.892;10.896;2022-09-27T21:38:38;22.10;52.70
1936;DHT22;969;49.892;10.896;2022-09-27T21:41:15;22.10;52.70
1936;DHT22;969;49.892;10.896;2022-09-27T21:50:21;22.10;52.60
1936;DHT22;969;49.892;10.896;2022-09-27T21:53:10;22.10;52.70
1936;DHT22;969;49.892;10.896;2022-09-27T21:56:09;22.10;52.70
1936;DHT22;969;49.892;10.896;2022-09-27T21:58:55;22.10;52.70
1936;DHT22;969;49.892;10.896;2022-09-27T22:01:35;22.10;52.70
1936;DHT22;969;49.892;10.896;2022-09-27T22:04:24;22.10;52.70
1936;DHT22;969;49.892;10.896;2022-09-27T22:07:12;22.10;52.70
1936;DHT22;969;49.892;10.896;2022-09-27T22:10:25;22.10;52.70
1936;DHT22;969;49.892;10.896;2022-09-27T22:13:24;22.10;52.70
1936;DHT22;969;49.892;10.896;2022-09-27T22:26:23;22.10;52.70
1936;DHT22;969;49.892;10.896;2022-09-27T22:29:17;22.10;52.70
1936;DHT22;969;49.892;10.896;2022-09-27T22:35:46;22.10;52.70
1936;DHT22;969;49.892;10.896;2022-09-27T22:38:41;22.10;52.70
1936;DHT22;969;49.892;10.896;2022-09-27T22:55:03;22.00;52.70
1936;DHT22;969;49.892;10.896;2022-09-27T22:57:47;22.00;52.70
1936;DHT22;969;49.892;10.896;2022-09-27T23:00:38;22.10;52.80
1936;DHT22;969;49.892;10.896;2022-09-27T23:03:33;22.00;52.70
1936;DHT22;969;49.892;10.896;2022-09-27T23:06:26;22.10;52.70
1936;DHT22;969;49.892;10.896;2022-09-27T23:09:05;22.10;52.70
1936;DHT22;969;49.892;10.896;2022-09-27T23:11:52;22.10;52.70
1936;DHT22;969;49.892;10.896;2022-09-27T23:27:52;22.10;52.70
1936;DHT22;969;49.892;10.896;2022-09-27T23:30:45;22.10;52.70
1936;DHT22;969;49.892;10.896;2022-09-27T23:33:27;22.00;52.70
1936;DHT22;969;49.892;10.896;2022-09-27T23:43:10;22.10;52.70
1936;DHT22;969;49.892;10.896;2022-09-27T23:52:55;22.10;52.80
1936;DHT22;969;49.892;10.896;2022-09-27T23:56:04;22.00;52.70
